createdAt,value
2023-01-24T00:01:22.870Z,1.50
2023-01-24T00:03:51.579Z,1.40
2023-01-24T00:06:19.942Z,1.30
2023-01-24T00:08:48.219Z,1.80
2023-01-24T00:11:16.446Z,1.50
2023-01-24T00:13:44.650Z,1.20
2023-01-24T00:16:19.171Z,1.20
2023-01-24T00:18:48.639Z,1.40
2023-01-24T00:21:19.677Z,1.10
2023-01-24T00:23:50.990Z,1.10
2023-01-24T00:26:20.395Z,1.20
2023-01-24T00:28:49.475Z,1.40
2023-01-24T00:31:18.323Z,1.30
2023-01-24T00:33:47.548Z,1.40
2023-01-24T00:36:15.778Z,1.50
2023-01-24T00:38:44.539Z,1.10
2023-01-24T00:41:12.725Z,1.20
2023-01-24T00:43:41.315Z,1.40
2023-01-24T00:46:10.114Z,1.20
2023-01-24T00:48:38.995Z,1.10
2023-01-24T00:51:07.739Z,1.00
2023-01-24T00:53:36.607Z,1.20
2023-01-24T00:56:08.207Z,1.20
2023-01-24T00:58:36.368Z,0.90
2023-01-24T01:01:05.089Z,1.10
2023-01-24T01:03:34.883Z,1.10
2023-01-24T01:06:10.496Z,1.10
2023-01-24T01:08:39.697Z,0.90
2023-01-24T01:11:08.530Z,1.10
2023-01-24T01:13:37.326Z,1.00
2023-01-24T01:16:15.163Z,1.20
2023-01-24T01:18:44.896Z,0.90
2023-01-24T01:21:16.876Z,0.90
2023-01-24T01:23:45.734Z,1.00
2023-01-24T01:26:20.810Z,1.10
2023-01-24T01:28:49.979Z,0.80
2023-01-24T01:31:18.221Z,1.30
2023-01-24T01:33:46.852Z,1.10
2023-01-24T01:36:15.373Z,1.00
2023-01-24T01:38:43.517Z,1.00
2023-01-24T01:41:15.824Z,1.20
2023-01-24T01:43:43.972Z,1.00
2023-01-24T01:46:24.657Z,1.10
2023-01-24T01:48:57.052Z,1.10
2023-01-24T01:51:32.817Z,0.90
2023-01-24T01:54:13.078Z,1.20
2023-01-24T01:56:50.643Z,1.00
2023-01-24T01:59:25.655Z,1.10
2023-01-24T02:01:56.950Z,1.10
2023-01-24T02:04:33.951Z,1.80
2023-01-24T02:07:11.290Z,0.90
2023-01-24T02:09:42.622Z,1.20
2023-01-24T02:12:14.873Z,1.00
2023-01-24T02:14:44.419Z,0.80
2023-01-24T02:17:12.804Z,1.20
2023-01-24T02:20:09.059Z,1.00
2023-01-24T02:23:02.294Z,1.20
2023-01-24T02:25:37.336Z,0.90
2023-01-24T02:28:07.697Z,1.10
2023-01-24T02:30:38.045Z,0.90
2023-01-24T02:33:14.675Z,0.80
2023-01-24T02:35:44.066Z,1.00
2023-01-24T02:38:32.788Z,1.00
2023-01-24T02:41:01.968Z,1.10
2023-01-24T02:43:32.176Z,0.80
2023-01-24T02:46:00.712Z,1.00
2023-01-24T02:48:29.963Z,1.00
2023-01-24T02:50:58.030Z,1.00
2023-01-24T02:53:26.677Z,1.10
2023-01-24T02:55:55.470Z,0.70
2023-01-24T02:58:24.002Z,0.90
2023-01-24T03:00:52.382Z,0.70
2023-01-24T03:03:20.661Z,0.90
2023-01-24T03:05:48.800Z,1.00
2023-01-24T03:08:16.995Z,1.00
2023-01-24T03:10:45.528Z,1.00
2023-01-24T03:13:14.331Z,0.90
2023-01-24T03:15:42.513Z,0.80
2023-01-24T03:18:10.791Z,0.90
2023-01-24T03:20:38.850Z,1.00
2023-01-24T03:23:07.510Z,0.90
2023-01-24T03:25:35.831Z,0.90
2023-01-24T03:28:06.220Z,0.80
2023-01-24T03:30:34.450Z,1.00
2023-01-24T03:33:04.534Z,0.70
2023-01-24T03:35:32.751Z,0.80
2023-01-24T03:38:01.611Z,0.90
2023-01-24T03:40:30.460Z,1.20
2023-01-24T03:43:00.939Z,0.90
2023-01-24T03:45:32.405Z,0.70
2023-01-24T03:48:07.695Z,0.70
2023-01-24T03:50:38.469Z,0.90
2023-01-24T03:53:08.594Z,0.80
2023-01-24T03:55:36.781Z,0.90
2023-01-24T03:58:07.113Z,0.70
2023-01-24T04:00:36.515Z,0.80
2023-01-24T04:03:04.972Z,1.00
2023-01-24T04:05:35.705Z,0.90
2023-01-24T04:08:04.663Z,0.90
2023-01-24T04:10:33.062Z,0.80
2023-01-24T04:13:01.583Z,1.10
2023-01-24T04:15:32.809Z,0.90
2023-01-24T04:18:03.721Z,0.90
2023-01-24T04:20:35.421Z,0.80
2023-01-24T04:23:07.172Z,0.70
2023-01-24T04:25:35.657Z,0.90
2023-01-24T04:28:03.873Z,0.90
2023-01-24T04:30:32.242Z,0.80
2023-01-24T04:33:01.967Z,0.70
2023-01-24T04:35:30.925Z,1.10
2023-01-24T04:38:02.236Z,0.70
2023-01-24T04:40:30.523Z,0.80
2023-01-24T04:42:59.282Z,1.00
2023-01-24T04:45:27.658Z,0.90
2023-01-24T04:47:55.979Z,0.80
2023-01-24T04:50:24.281Z,0.80
2023-01-24T04:52:52.962Z,0.80
2023-01-24T04:55:21.445Z,0.80
2023-01-24T04:57:50.003Z,0.80
2023-01-24T05:00:18.292Z,1.20
2023-01-24T05:02:46.643Z,0.80
2023-01-24T05:05:15.142Z,0.80
2023-01-24T05:07:43.230Z,1.00
2023-01-24T05:10:12.100Z,0.90
2023-01-24T05:12:41.283Z,1.30
2023-01-24T05:15:11.265Z,1.20
2023-01-24T05:17:39.565Z,0.90
2023-01-24T05:20:08.784Z,0.90
2023-01-24T05:22:37.608Z,1.20
2023-01-24T05:25:06.523Z,1.00
2023-01-24T05:27:35.074Z,1.20
2023-01-24T05:30:03.964Z,1.00
2023-01-24T05:32:32.067Z,1.10
2023-01-24T05:35:00.467Z,1.40
2023-01-24T05:37:29.269Z,1.00
2023-01-24T05:39:57.497Z,1.10
2023-01-24T05:42:25.632Z,1.30
2023-01-24T05:44:54.570Z,0.90
2023-01-24T05:47:23.510Z,1.30
2023-01-24T05:49:51.794Z,1.10
2023-01-24T05:52:20.396Z,1.50
2023-01-24T05:54:50.018Z,1.50
2023-01-24T05:57:19.953Z,1.60
2023-01-24T05:59:48.557Z,1.10
2023-01-24T06:02:16.752Z,1.40
2023-01-24T06:04:45.456Z,1.50
2023-01-24T06:07:13.561Z,1.70
2023-01-24T06:09:41.647Z,1.40
2023-01-24T06:12:10.370Z,1.80
2023-01-24T06:14:38.625Z,1.50
2023-01-24T06:17:07.137Z,1.30
2023-01-24T06:19:35.946Z,1.20
2023-01-24T06:22:06.740Z,1.20
2023-01-24T06:24:35.115Z,1.40
2023-01-24T06:27:04.284Z,1.40
2023-01-24T06:29:32.857Z,1.50
2023-01-24T06:32:06.562Z,1.20
2023-01-24T06:34:41.634Z,1.60
2023-01-24T06:37:28.409Z,1.40
2023-01-24T06:39:57.351Z,1.50
2023-01-24T06:42:26.727Z,1.20
2023-01-24T06:44:55.080Z,1.60
2023-01-24T06:47:23.232Z,1.50
2023-01-24T06:49:51.882Z,1.50
2023-01-24T06:52:19.969Z,1.30
2023-01-24T06:54:48.364Z,1.40
2023-01-24T06:57:16.408Z,1.80
2023-01-24T06:59:45.072Z,1.80
2023-01-24T07:02:13.385Z,1.50
2023-01-24T07:04:41.657Z,1.60
2023-01-24T07:07:10.291Z,1.80
2023-01-24T07:09:38.569Z,2.30
2023-01-24T07:12:06.805Z,2.10
2023-01-24T07:14:34.918Z,2.30
2023-01-24T07:17:03.561Z,2.30
2023-01-24T07:19:32.529Z,2.30
2023-01-24T07:22:01.348Z,2.00
2023-01-24T07:24:31.338Z,1.70
2023-01-24T07:26:59.699Z,1.90
2023-01-24T07:29:28.325Z,2.00
2023-01-24T07:31:56.601Z,2.20
2023-01-24T07:34:24.776Z,2.40
2023-01-24T07:36:53.544Z,2.40
2023-01-24T07:39:21.710Z,2.90
2023-01-24T07:41:49.919Z,3.10
2023-01-24T07:44:18.268Z,3.40
2023-01-24T07:46:46.307Z,2.80
2023-01-24T07:49:14.918Z,2.90
2023-01-24T07:51:44.136Z,3.00
2023-01-24T07:54:12.446Z,3.00
2023-01-24T07:56:41.118Z,2.60
2023-01-24T07:59:09.538Z,2.50
2023-01-24T08:01:37.649Z,2.30
2023-01-24T08:04:05.928Z,3.20
2023-01-24T08:06:34.278Z,3.30
2023-01-24T08:09:03.458Z,2.60
2023-01-24T08:11:31.833Z,2.80
2023-01-24T08:14:00.272Z,2.70
2023-01-24T08:16:30.564Z,3.30
2023-01-24T08:18:58.875Z,3.20
2023-01-24T08:21:27.073Z,3.50
2023-01-24T08:23:55.328Z,3.30
2023-01-24T08:26:23.523Z,2.60
2023-01-24T08:28:52.469Z,2.90
2023-01-24T08:31:21.238Z,3.40
2023-01-24T08:33:49.582Z,3.30
2023-01-24T08:36:17.753Z,3.80
2023-01-24T08:38:46.232Z,3.70
2023-01-24T08:41:15.292Z,4.70
2023-01-24T08:43:44.457Z,4.50
2023-01-24T08:46:12.639Z,3.80
2023-01-24T08:48:40.931Z,4.90
2023-01-24T08:51:09.375Z,4.80
2023-01-24T08:53:37.529Z,5.20
2023-01-24T08:56:06.239Z,4.60
2023-01-24T08:58:35.550Z,5.30
2023-01-24T09:01:10.717Z,6.50
2023-01-24T09:03:39.433Z,6.10
2023-01-24T09:06:08.342Z,6.70
2023-01-24T09:08:37.025Z,6.00
2023-01-24T09:11:05.653Z,5.10
2023-01-24T09:13:34.022Z,4.50
2023-01-24T09:16:02.221Z,3.20
2023-01-24T09:18:30.736Z,3.30
2023-01-24T09:21:03.707Z,3.20
2023-01-24T09:23:32.001Z,2.50
2023-01-24T09:26:00.190Z,2.70
2023-01-24T09:28:28.481Z,2.60
2023-01-24T09:30:56.802Z,2.60
2023-01-24T09:33:24.986Z,2.30
2023-01-24T09:35:58.890Z,2.10
2023-01-24T09:38:29.479Z,2.10
2023-01-24T09:41:27.515Z,2.00
2023-01-24T09:44:11.675Z,2.10
2023-01-24T09:46:51.835Z,1.90
2023-01-24T09:49:40.761Z,2.50
2023-01-24T09:52:15.961Z,2.00
2023-01-24T09:55:42.890Z,1.90
2023-01-24T09:58:37.996Z,1.70
2023-01-24T10:01:14.044Z,3.50
2023-01-24T10:03:51.206Z,2.50
2023-01-24T10:06:24.822Z,2.10
2023-01-24T10:09:27.535Z,2.00
2023-01-24T10:11:58.579Z,1.40
2023-01-24T10:14:53.653Z,1.60
2023-01-24T10:17:53.718Z,1.10
2023-01-24T10:20:31.618Z,1.10
2023-01-24T10:26:13.052Z,0.80
2023-01-24T10:28:47.894Z,0.80
2023-01-24T10:31:28.355Z,0.80
2023-01-24T10:34:19.986Z,1.20
2023-01-24T10:37:10.553Z,1.30
2023-01-24T10:39:39.382Z,1.10
2023-01-24T10:42:28.641Z,1.10
2023-01-24T10:45:01.796Z,1.00
2023-01-24T10:47:56.252Z,1.30
2023-01-24T10:50:24.897Z,1.10
2023-01-24T10:52:53.110Z,1.00
2023-01-24T10:55:36.186Z,1.10
2023-01-24T10:58:46.478Z,1.20
2023-01-24T11:01:21.395Z,1.40
2023-01-24T11:03:51.840Z,1.10
2023-01-24T11:06:38.298Z,1.10
2023-01-24T11:09:15.174Z,0.80
2023-01-24T11:11:50.284Z,1.50
2023-01-24T11:14:26.072Z,0.80
2023-01-24T11:16:57.490Z,1.00
2023-01-24T11:19:36.442Z,0.90
2023-01-24T11:22:25.179Z,0.80
2023-01-24T11:24:59.826Z,1.00
2023-01-24T11:27:28.463Z,0.90
2023-01-24T11:30:18.470Z,0.80
2023-01-24T11:33:08.317Z,0.80
2023-01-24T11:35:45.859Z,1.70
2023-01-24T11:38:14.104Z,0.80
2023-01-24T11:41:00.159Z,0.90
2023-01-24T11:43:37.167Z,1.60
2023-01-24T11:48:54.990Z,0.90
2023-01-24T11:51:35.620Z,1.00
2023-01-24T11:54:03.739Z,1.10
2023-01-24T11:57:00.556Z,1.00
2023-01-24T12:00:02.703Z,1.00
2023-01-24T12:02:42.792Z,1.10
2023-01-24T12:05:29.436Z,1.30
2023-01-24T12:08:20.439Z,1.00
2023-01-24T12:11:35.363Z,1.30
2023-01-24T12:14:41.059Z,1.10
2023-01-24T12:17:30.370Z,1.30
2023-01-24T12:20:43.697Z,1.30
2023-01-24T12:23:16.728Z,1.10
2023-01-24T12:25:47.867Z,1.30
2023-01-24T12:28:30.003Z,1.10
2023-01-24T12:31:01.755Z,1.00
2023-01-24T12:33:39.129Z,1.10
2023-01-24T12:36:14.545Z,1.30
2023-01-24T12:38:48.038Z,1.00
2023-01-24T12:41:32.844Z,1.20
2023-01-24T12:44:04.326Z,1.20
2023-01-24T12:47:13.803Z,1.30
2023-01-24T12:50:04.521Z,1.40
2023-01-24T12:52:55.869Z,1.20
2023-01-24T12:55:36.353Z,1.60
2023-01-24T12:58:44.454Z,1.50
2023-01-24T13:01:36.510Z,1.40
2023-01-24T13:04:17.593Z,1.80
2023-01-24T13:07:07.307Z,2.10
2023-01-24T13:10:06.926Z,2.00
2023-01-24T13:12:35.274Z,1.90
2023-01-24T13:15:18.043Z,1.40
2023-01-24T13:18:13.999Z,1.70
2023-01-24T13:21:00.355Z,1.60
2023-01-24T13:23:47.853Z,1.70
2023-01-24T13:29:04.548Z,2.40
2023-01-24T13:32:18.751Z,2.90
2023-01-24T13:34:58.596Z,2.20
2023-01-24T13:37:32.350Z,2.10
2023-01-24T13:40:06.523Z,2.40
2023-01-24T13:42:37.756Z,2.10
2023-01-24T13:45:27.405Z,1.80
2023-01-24T13:47:57.615Z,1.70
2023-01-24T13:50:30.684Z,1.90
2023-01-24T13:53:00.694Z,1.90
2023-01-24T13:55:41.138Z,2.20
2023-01-24T13:58:09.181Z,2.00
2023-01-24T14:00:43.181Z,2.60
2023-01-24T14:03:22.826Z,2.10
2023-01-24T14:05:57.882Z,2.00
2023-01-24T14:08:25.921Z,1.70
2023-01-24T14:11:16.762Z,2.10
2023-01-24T14:13:47.932Z,2.00
2023-01-24T14:16:26.073Z,2.60
2023-01-24T14:19:09.315Z,2.00
2023-01-24T14:21:52.210Z,2.00
2023-01-24T14:24:35.044Z,2.90
2023-01-24T14:27:23.301Z,2.50
2023-01-24T14:32:48.735Z,2.70
2023-01-24T14:35:24.310Z,2.50
2023-01-24T14:37:52.978Z,2.40
2023-01-24T14:40:27.918Z,2.20
2023-01-24T14:43:05.219Z,2.50
2023-01-24T14:45:35.220Z,2.50
2023-01-24T14:48:10.150Z,2.00
2023-01-24T14:50:39.854Z,2.30
2023-01-24T14:53:32.386Z,2.20
2023-01-24T14:56:11.669Z,1.90
2023-01-24T14:58:40.252Z,2.30
2023-01-24T15:01:45.217Z,2.70
2023-01-24T15:04:32.121Z,2.40
2023-01-24T15:07:06.405Z,2.40
2023-01-24T15:09:34.929Z,2.30
2023-01-24T15:12:42.615Z,2.30
2023-01-24T15:15:19.350Z,2.40
2023-01-24T15:17:49.985Z,2.80
2023-01-24T15:20:22.074Z,2.60
2023-01-24T15:22:53.737Z,2.50
2023-01-24T15:25:34.120Z,2.60
2023-01-24T15:28:23.931Z,2.70
2023-01-24T15:31:00.302Z,2.80
2023-01-24T15:33:54.339Z,3.00
2023-01-24T15:36:32.391Z,2.30
2023-01-24T15:39:01.930Z,2.50
2023-01-24T15:41:37.280Z,2.40
2023-01-24T15:44:09.063Z,2.50
2023-01-24T15:46:42.611Z,2.60
2023-01-24T15:49:33.919Z,3.00
2023-01-24T15:52:06.542Z,2.90
2023-01-24T15:54:36.140Z,2.40
2023-01-24T15:57:14.326Z,2.50
2023-01-24T15:59:47.843Z,2.80
2023-01-24T16:02:16.465Z,2.70
2023-01-24T16:04:47.136Z,2.70
2023-01-24T16:07:16.580Z,2.70
2023-01-24T16:09:46.796Z,2.40
2023-01-24T16:12:17.579Z,2.80
2023-01-24T16:15:07.099Z,2.70
2023-01-24T16:17:36.122Z,2.80
2023-01-24T16:20:16.449Z,2.40
2023-01-24T16:22:44.982Z,2.60
2023-01-24T16:25:14.933Z,2.60
2023-01-24T16:27:43.244Z,2.40
2023-01-24T16:30:19.170Z,2.60
2023-01-24T16:32:48.068Z,2.50
2023-01-24T16:35:17.081Z,2.40
2023-01-24T16:37:46.316Z,2.20
2023-01-24T16:40:17.189Z,2.10
2023-01-24T16:42:48.225Z,2.10
2023-01-24T16:45:20.533Z,2.60
2023-01-24T16:47:48.868Z,2.10
2023-01-24T16:50:17.695Z,2.90
2023-01-24T16:52:46.614Z,2.30
2023-01-24T16:55:15.818Z,2.70
2023-01-24T16:57:44.448Z,1.40
2023-01-24T17:00:17.533Z,2.80
2023-01-24T17:02:50.918Z,2.30
2023-01-24T17:05:19.653Z,2.20
2023-01-24T17:07:50.894Z,2.30
2023-01-24T17:10:19.269Z,1.40
2023-01-24T17:12:47.934Z,2.30
2023-01-24T17:15:17.969Z,2.90
2023-01-24T17:17:46.849Z,2.70
2023-01-24T17:20:15.912Z,2.20
2023-01-24T17:22:44.002Z,1.40
2023-01-24T17:25:12.290Z,1.50
2023-01-24T17:27:40.495Z,2.50
2023-01-24T17:30:09.378Z,2.20
2023-01-24T17:32:38.588Z,2.20
2023-01-24T17:35:07.558Z,1.10
2023-01-24T17:37:36.199Z,1.70
2023-01-24T17:40:06.104Z,1.50
2023-01-24T17:42:35.927Z,1.70
2023-01-24T17:45:04.376Z,1.50
2023-01-24T17:47:32.571Z,1.80
2023-01-24T17:50:00.802Z,1.50
2023-01-24T17:52:28.902Z,2.00
2023-01-24T17:54:58.205Z,2.20
2023-01-24T17:57:26.708Z,1.80
2023-01-24T17:59:54.797Z,1.60
2023-01-24T18:02:23.128Z,2.00
2023-01-24T18:04:51.307Z,1.90
2023-01-24T18:07:19.400Z,2.00
2023-01-24T18:09:48.233Z,3.00
2023-01-24T18:12:16.922Z,2.30
2023-01-24T18:14:45.085Z,1.60
2023-01-24T18:17:13.326Z,2.00
2023-01-24T18:19:41.509Z,2.10
2023-01-24T18:22:09.598Z,2.30
2023-01-24T18:24:38.062Z,2.00
2023-01-24T18:27:06.295Z,2.10
2023-01-24T18:29:34.372Z,2.20
2023-01-24T18:32:02.597Z,2.30
2023-01-24T18:34:30.751Z,2.70
2023-01-24T18:36:58.856Z,3.80
2023-01-24T18:39:27.385Z,2.10
2023-01-24T18:41:55.782Z,2.20
2023-01-24T18:44:23.921Z,2.60
2023-01-24T18:46:52.052Z,2.00
2023-01-24T18:49:20.725Z,2.40
2023-01-24T18:51:49.447Z,2.00
2023-01-24T18:54:18.607Z,1.90
2023-01-24T18:56:46.822Z,2.40
2023-01-24T18:59:14.921Z,2.30
2023-01-24T19:01:43.837Z,2.20
2023-01-24T19:04:11.955Z,2.70
2023-01-24T19:06:40.157Z,2.70
2023-01-24T19:09:09.496Z,2.60
2023-01-24T19:11:40.568Z,2.00
2023-01-24T19:14:13.776Z,2.50
2023-01-24T19:16:43.461Z,2.20
2023-01-24T19:19:18.055Z,2.00
2023-01-24T19:21:46.752Z,2.20
2023-01-24T19:24:15.722Z,2.00
2023-01-24T19:26:44.326Z,2.20
2023-01-24T19:29:12.533Z,2.40
2023-01-24T19:31:42.302Z,2.60
2023-01-24T19:34:11.180Z,2.30
2023-01-24T19:36:39.335Z,2.40
2023-01-24T19:39:12.540Z,2.30
2023-01-24T19:41:40.915Z,2.80
2023-01-24T19:44:24.330Z,3.30
2023-01-24T19:46:53.096Z,2.50
2023-01-24T19:49:21.180Z,3.10
2023-01-24T19:51:49.562Z,2.90
2023-01-24T19:54:17.949Z,3.20
2023-01-24T19:56:46.778Z,3.60
2023-01-24T19:59:14.814Z,3.00
2023-01-24T20:01:43.455Z,3.50
2023-01-24T20:04:27.564Z,3.50
2023-01-24T20:06:56.771Z,4.10
2023-01-24T20:09:25.109Z,3.30
2023-01-24T20:11:53.614Z,3.90
2023-01-24T20:14:23.194Z,3.60
2023-01-24T20:16:51.559Z,4.20
2023-01-24T20:19:28.168Z,3.50
2023-01-24T20:21:59.970Z,3.70
2023-01-24T20:24:29.289Z,3.90
2023-01-24T20:26:57.640Z,3.70
2023-01-24T20:29:26.390Z,4.20
2023-01-24T20:31:54.964Z,4.20
2023-01-24T20:34:24.208Z,4.00
2023-01-24T20:36:52.867Z,4.00
2023-01-24T20:39:21.292Z,3.20
2023-01-24T20:41:51.309Z,3.30
2023-01-24T20:44:26.993Z,2.90
2023-01-24T20:46:58.698Z,3.70
2023-01-24T20:49:27.058Z,3.00
2023-01-24T20:51:55.562Z,3.90
2023-01-24T20:54:24.352Z,3.50
2023-01-24T20:56:52.747Z,3.70
2023-01-24T20:59:20.932Z,3.70
2023-01-24T21:01:49.733Z,4.70
2023-01-24T21:04:18.785Z,3.30
2023-01-24T21:06:47.119Z,3.60
2023-01-24T21:09:15.956Z,3.60
2023-01-24T21:11:44.427Z,3.50
2023-01-24T21:14:14.040Z,3.50
2023-01-24T21:16:42.345Z,3.60
2023-01-24T21:19:14.057Z,3.80
2023-01-24T21:21:42.286Z,2.90
2023-01-24T21:24:30.853Z,3.50
2023-01-24T21:27:02.312Z,3.40
2023-01-24T21:29:31.182Z,3.10
2023-01-24T21:32:00.699Z,3.00
2023-01-24T21:34:29.074Z,2.70
2023-01-24T21:36:58.157Z,2.90
2023-01-24T21:39:26.503Z,2.80
2023-01-24T21:41:55.910Z,2.80
2023-01-24T21:44:27.994Z,3.20
2023-01-24T21:46:56.197Z,2.60
2023-01-24T21:49:25.744Z,2.60
2023-01-24T21:52:01.369Z,3.20
2023-01-24T21:54:32.328Z,2.50
2023-01-24T21:57:17.397Z,3.10
2023-01-24T21:59:52.290Z,2.60
2023-01-24T22:02:25.559Z,2.30
2023-01-24T22:04:55.318Z,2.20
2023-01-24T22:07:25.569Z,2.30
2023-01-24T22:09:55.413Z,2.50
2023-01-24T22:12:24.352Z,2.20
2023-01-24T22:14:53.735Z,2.00
2023-01-24T22:17:23.945Z,2.10
2023-01-24T22:19:56.259Z,2.10
2023-01-24T22:22:33.523Z,2.00
2023-01-24T22:25:06.153Z,2.40
2023-01-24T22:27:35.073Z,1.80
2023-01-24T22:30:04.146Z,1.70
2023-01-24T22:32:33.187Z,2.10
2023-01-24T22:35:02.262Z,2.00
2023-01-24T22:37:38.204Z,2.30
2023-01-24T22:40:11.337Z,2.40
2023-01-24T22:42:39.840Z,2.00
2023-01-24T22:45:08.702Z,2.10
2023-01-24T22:47:37.082Z,2.30
2023-01-24T22:50:05.765Z,2.30
2023-01-24T22:52:35.373Z,2.20
2023-01-24T22:55:03.804Z,2.40
2023-01-24T22:57:32.028Z,2.20
2023-01-24T23:00:06.432Z,2.10
2023-01-24T23:02:35.454Z,1.90
2023-01-24T23:05:03.877Z,2.10
2023-01-24T23:07:31.959Z,2.10
2023-01-24T23:10:00.288Z,2.30
2023-01-24T23:12:28.349Z,2.20
2023-01-24T23:14:56.474Z,2.00
2023-01-24T23:17:25.078Z,2.30
2023-01-24T23:19:53.446Z,2.30
2023-01-24T23:22:25.379Z,3.00
2023-01-24T23:24:53.919Z,2.50
2023-01-24T23:27:30.539Z,3.00
2023-01-24T23:30:16.904Z,2.90
2023-01-24T23:32:51.643Z,2.10
2023-01-24T23:35:19.702Z,2.70
2023-01-24T23:37:48.013Z,1.90
2023-01-24T23:40:17.489Z,2.60
2023-01-24T23:42:45.838Z,2.70
2023-01-24T23:45:19.624Z,2.50
2023-01-24T23:47:48.086Z,2.00
2023-01-24T23:50:16.438Z,2.60
2023-01-24T23:52:44.665Z,2.60
2023-01-24T23:55:12.873Z,2.20
2023-01-24T23:57:41.095Z,2.30
